createdAt,value
2018-03-18T00:04:55.122Z,51.1
2018-03-18T00:15:08.584Z,50.9
2018-03-18T00:25:31.145Z,50.9
2018-03-18T00:35:45.322Z,50.9
2018-03-18T00:45:59.449Z,50.8
2018-03-18T00:56:13.447Z,51.1
2018-03-18T01:06:28.575Z,51.1
2018-03-18T01:16:42.222Z,51.1
2018-03-18T01:26:56.677Z,50.9
2018-03-18T01:37:10.904Z,51.1
2018-03-18T01:47:25.158Z,51.3
2018-03-18T01:57:39.282Z,51.1
2018-03-18T02:07:50.595Z,51.2
2018-03-18T02:18:05.013Z,51.3
2018-03-18T02:28:19.223Z,51.1
2018-03-18T02:38:33.306Z,51.2
2018-03-18T02:48:44.834Z,51.4
2018-03-18T02:58:55.899Z,51.5
2018-03-18T03:09:09.628Z,51.2
2018-03-18T03:19:23.643Z,51.3
2018-03-18T03:29:35.172Z,51.4
2018-03-18T03:40:34.065Z,51.2
2018-03-18T03:50:48.311Z,51.2
2018-03-18T04:01:02.378Z,51.2
2018-03-18T04:11:22.418Z,50.9
2018-03-18T04:21:36.091Z,51.0
2018-03-18T04:31:57.498Z,51.1
2018-03-18T04:42:21.022Z,51.3
2018-03-18T04:52:44.927Z,51.1
2018-03-18T05:03:05.298Z,51.0
2018-03-18T05:13:19.056Z,51.2
2018-03-18T05:23:32.354Z,51.2
2018-03-18T05:33:47.150Z,51.3
2018-03-18T05:44:04.519Z,51.2
2018-03-18T05:54:21.630Z,51.4
2018-03-18T06:04:44.419Z,51.4
2018-03-18T06:14:57.949Z,51.7
2018-03-18T06:25:14.256Z,51.6
2018-03-18T06:35:26.865Z,51.7
2018-03-18T06:45:41.644Z,51.7
2018-03-18T06:56:05.195Z,51.9
2018-03-18T07:06:18.546Z,52.1
2018-03-18T07:16:30.036Z,52.2
2018-03-18T07:26:50.231Z,52.4
2018-03-18T07:37:48.495Z,52.1
2018-03-18T07:48:07.466Z,52.6
2018-03-18T07:58:28.539Z,53.0
2018-03-18T08:08:42.241Z,51.7
2018-03-18T08:19:02.628Z,48.0
2018-03-18T08:29:54.965Z,46.3
2018-03-18T08:40:08.634Z,46.5
2018-03-18T08:50:24.786Z,45.8
2018-03-18T09:00:36.855Z,41.8
2018-03-18T09:11:06.729Z,39.7
2018-03-18T09:33:54.586Z,39.3
2018-03-18T09:44:09.213Z,39.9
2018-03-18T09:54:55.372Z,38.5
2018-03-18T10:05:21.572Z,37.5
2018-03-18T10:16:42.171Z,39.2
2018-03-18T10:27:48.805Z,38.8
2018-03-18T10:39:09.673Z,38.8
2018-03-18T10:50:13.891Z,39.8
2018-03-18T11:01:30.060Z,40.0
2018-03-18T11:12:57.658Z,40.1
2018-03-18T11:23:43.250Z,40.5
2018-03-18T11:34:14.304Z,41.0
2018-03-18T11:44:29.679Z,41.4
2018-03-18T11:54:41.644Z,40.8
2018-03-18T12:05:27.487Z,42.1
2018-03-18T12:16:15.994Z,42.4
2018-03-18T12:27:05.844Z,42.1
2018-03-18T12:37:20.362Z,42.4
2018-03-18T12:47:34.763Z,43.3
2018-03-18T12:58:34.881Z,43.6
2018-03-18T13:08:48.803Z,42.8
2018-03-18T13:19:42.694Z,41.9
2018-03-18T13:42:29.265Z,42.4
2018-03-18T13:52:52.862Z,42.8
2018-03-18T15:25:33.657Z,41.5
2018-03-18T16:10:24.115Z,39.9
2018-03-18T16:24:39.748Z,39.6
2018-03-18T17:23:17.495Z,40.0
2018-03-18T17:34:28.682Z,40.6
2018-03-18T17:44:42.558Z,40.8
2018-03-18T18:13:20.273Z,41.2
2018-03-18T18:27:09.445Z,41.8
2018-03-18T18:54:25.909Z,42.2
2018-03-18T19:07:32.092Z,42.2
2018-03-18T19:21:32.599Z,42.1
2018-03-18T21:01:23.689Z,43.6
2018-03-18T21:12:09.176Z,44.1
2018-03-18T21:22:22.743Z,44.3
2018-03-18T21:32:59.152Z,44.2
2018-03-18T21:43:13.420Z,44.6
2018-03-18T21:53:27.785Z,44.3
2018-03-18T22:03:41.565Z,44.7
2018-03-18T22:14:27.751Z,44.6
2018-03-18T22:24:49.219Z,44.8
2018-03-18T22:35:52.193Z,44.8
2018-03-18T22:46:32.670Z,44.8
2018-03-18T22:57:02.295Z,45.0
2018-03-18T23:07:16.547Z,44.9
2018-03-18T23:17:31.061Z,45.0
2018-03-18T23:28:17.622Z,45.3
2018-03-18T23:38:37.658Z,45.1
2018-03-18T23:48:56.159Z,45.3
2018-03-18T23:59:17.992Z,45.1
